Portada
METAR-TAF:

METAR-TAF

Aeroports :

Minden, Nevada, Estats Units d'Amèrica

latitud: 39-00-03N, longitud: 119-45-07W, altitud: 1439 m

Observació

L'informe es va fer fa 22 minuts, a les 16:15 UTC
Vent calma
Temperatura -2°C
Humitat 50%
Pressió 1032 hPa
Visibilitat: 16.1 km
Cel clar

METAR: KMEV 261615Z AUTO 00000KT 10SM CLR M02/M11 A3048 RMK AO2

Hora: 08:37 (16:37 UTC)

Pronòstic

L'informe es va fer fa 5 hores i 2 minuts, a les 11:35 UTC
Pronòstic vàlid del 26 a les 12 UTC al 27 a les 12 UTC
Vent 4 kt del Est/Sud-Est
Visibilitat: 10 km
Escasses núvols a una alçada de 18000 ft
Cel ennuvolat a una alçada de 25000 ft
A partir de les 26 a les 2100 UTC
Vent 10 kt del Oest amb ràfegues de 18 kt
Visibilitat: 10 km
Escasses núvols a una alçada de 20000 ft

TAF: KMEV 261135Z 2612/2712 11004KT P6SM FEW180 BKN250 FM262100 27010G18KT P6SM FEW200

Observacions i pronòstics meteorològics de més de 4000 aeroports (METAR i TAF).

Les estacions disponibles són els punts grocs i vermells al mapa.

Posi el ratolí al punt desitjat per veure el nom de l'estació.

Feu clic per veure les observacions i els pronòstics meteorològics.

Per canviar el mapa: feu clic els botons verds amb una creu de color negre per apropar; al botó verd amb un guió per allunyar la imatge; o en les fletxes verdes per a mapes adjacents.


METAR-TAF: